createdAt,value
2023-03-01T00:02:25.954Z,52.30
2023-03-01T00:05:11.680Z,52.56
2023-03-01T00:07:57.552Z,52.03
2023-03-01T00:10:43.480Z,52.13
2023-03-01T00:13:29.418Z,52.38
2023-03-01T00:16:21.793Z,52.04
2023-03-01T00:19:10.903Z,52.34
2023-03-01T00:21:56.985Z,52.05
2023-03-01T00:24:42.857Z,52.26
2023-03-01T00:27:28.629Z,52.33
2023-03-01T00:30:14.617Z,52.61
2023-03-01T00:33:00.601Z,52.37
2023-03-01T00:35:46.853Z,52.04
2023-03-01T00:38:36.832Z,52.02
2023-03-01T00:41:23.708Z,52.39
2023-03-01T00:44:09.520Z,52.04
2023-03-01T00:46:55.806Z,52.47
2023-03-01T00:49:41.687Z,52.30
2023-03-01T00:52:27.829Z,52.24
2023-03-01T00:55:14.993Z,52.24
2023-03-01T00:58:01.153Z,52.44
2023-03-01T01:00:47.361Z,52.12
2023-03-01T01:03:33.563Z,52.19
2023-03-01T01:06:28.098Z,52.09
2023-03-01T01:09:20.833Z,52.13
2023-03-01T01:12:07.058Z,52.37
2023-03-01T01:14:53.734Z,52.17
2023-03-01T01:17:39.727Z,52.33
2023-03-01T01:20:25.652Z,51.96
2023-03-01T01:23:12.151Z,52.33
2023-03-01T01:25:58.044Z,51.86
2023-03-01T01:28:43.956Z,52.03
2023-03-01T01:31:30.737Z,51.83
2023-03-01T01:34:19.764Z,52.15
2023-03-01T01:37:11.752Z,52.01
2023-03-01T01:40:04.768Z,52.20
2023-03-01T01:42:50.452Z,52.07
2023-03-01T01:45:36.890Z,51.80
2023-03-01T01:48:25.645Z,51.87
2023-03-01T01:51:21.544Z,51.96
2023-03-01T01:54:20.227Z,52.11
2023-03-01T01:57:10.675Z,52.25
2023-03-01T01:59:59.772Z,51.68
2023-03-01T02:02:48.526Z,51.81
2023-03-01T02:05:59.923Z,51.79
2023-03-01T02:08:48.704Z,52.15
2023-03-01T02:11:35.217Z,52.42
2023-03-01T02:14:21.234Z,52.22
2023-03-01T02:17:07.199Z,51.97
2023-03-01T02:20:02.271Z,51.97
2023-03-01T02:22:48.810Z,51.87
2023-03-01T02:26:07.454Z,52.17
2023-03-01T02:28:53.227Z,52.09
2023-03-01T02:31:46.480Z,52.12
2023-03-01T02:34:33.450Z,52.33
2023-03-01T02:37:25.793Z,52.24
2023-03-01T02:40:18.405Z,51.74
2023-03-01T02:43:06.559Z,51.82
2023-03-01T02:45:53.893Z,52.16
2023-03-01T02:48:48.473Z,52.00
2023-03-01T02:51:34.574Z,52.35
2023-03-01T02:54:38.114Z,51.82
2023-03-01T02:57:24.885Z,51.65
2023-03-01T03:00:20.191Z,51.83
2023-03-01T03:03:08.316Z,51.72
2023-03-01T03:05:54.253Z,51.77
2023-03-01T03:08:40.305Z,52.13
2023-03-01T03:11:27.029Z,52.35
2023-03-01T03:14:16.116Z,52.34
2023-03-01T03:17:07.494Z,52.19
2023-03-01T03:19:53.512Z,51.57
2023-03-01T03:22:40.782Z,52.01
2023-03-01T03:25:28.315Z,52.40
2023-03-01T03:28:14.064Z,52.17
2023-03-01T03:31:04.453Z,52.04
2023-03-01T03:33:50.489Z,51.86
2023-03-01T03:36:36.534Z,51.87
2023-03-01T03:39:22.786Z,52.10
2023-03-01T03:42:08.880Z,51.90
2023-03-01T03:44:54.547Z,51.92
2023-03-01T03:47:40.373Z,52.24
2023-03-01T03:50:26.305Z,52.04
2023-03-01T03:53:13.239Z,52.18
2023-03-01T03:55:59.621Z,52.12
2023-03-01T03:58:45.508Z,52.26
2023-03-01T04:01:31.420Z,52.15
2023-03-01T04:04:19.969Z,52.39
2023-03-01T04:07:06.042Z,52.19
2023-03-01T04:09:52.242Z,52.23
2023-03-01T04:12:38.283Z,52.03
2023-03-01T04:15:26.162Z,52.43
2023-03-01T04:18:16.709Z,52.54
2023-03-01T04:21:03.060Z,52.44
2023-03-01T04:23:49.525Z,52.29
2023-03-01T04:26:35.553Z,52.20
2023-03-01T04:29:21.262Z,52.37
2023-03-01T04:32:07.090Z,52.47
2023-03-01T04:34:52.824Z,52.20
2023-03-01T04:37:38.744Z,52.18
2023-03-01T04:40:24.643Z,52.23
2023-03-01T04:43:11.718Z,52.36
2023-03-01T04:46:03.855Z,52.28
2023-03-01T04:48:49.901Z,52.51
2023-03-01T04:51:35.633Z,52.35
2023-03-01T04:54:24.517Z,51.98
2023-03-01T04:57:10.478Z,52.33
2023-03-01T04:59:56.621Z,52.08
2023-03-01T05:02:44.187Z,52.11
2023-03-01T05:05:37.519Z,52.41
2023-03-01T05:08:23.691Z,52.22
2023-03-01T05:11:10.579Z,52.40
2023-03-01T05:13:57.913Z,52.52
2023-03-01T05:16:44.018Z,52.29
2023-03-01T05:19:29.679Z,52.27
2023-03-01T05:22:15.528Z,52.08
2023-03-01T05:25:01.408Z,52.80
2023-03-01T05:27:49.418Z,52.15
2023-03-01T05:30:37.687Z,52.85
2023-03-01T05:33:24.511Z,52.19
2023-03-01T05:36:11.199Z,52.54
2023-03-01T05:38:56.890Z,52.14
2023-03-01T05:41:42.820Z,52.53
2023-03-01T05:44:31.053Z,52.43
2023-03-01T05:47:16.647Z,52.30
2023-03-01T05:50:03.458Z,52.26
2023-03-01T05:52:58.473Z,52.14
2023-03-01T05:55:45.345Z,52.64
2023-03-01T05:58:31.899Z,52.42
2023-03-01T06:01:17.820Z,52.33
2023-03-01T06:04:04.906Z,52.43
2023-03-01T06:06:51.003Z,52.26
2023-03-01T06:09:36.886Z,52.53
2023-03-01T06:12:22.661Z,52.50
2023-03-01T06:15:10.824Z,52.78
2023-03-01T06:18:00.446Z,52.71
2023-03-01T06:20:54.093Z,52.65
2023-03-01T06:23:40.306Z,52.61
2023-03-01T06:26:26.264Z,52.45
2023-03-01T06:29:12.186Z,52.68
2023-03-01T06:31:58.400Z,52.80
2023-03-01T06:34:44.439Z,52.33
2023-03-01T06:37:30.391Z,52.37
2023-03-01T06:40:17.074Z,52.83
2023-03-01T06:43:03.312Z,52.81
2023-03-01T06:45:49.435Z,52.88
2023-03-01T06:48:35.472Z,52.37
2023-03-01T06:51:21.214Z,52.27
2023-03-01T06:54:07.105Z,52.76
2023-03-01T06:56:54.143Z,52.48
2023-03-01T06:59:40.145Z,52.91
2023-03-01T07:02:26.083Z,52.55
2023-03-01T07:05:11.772Z,52.96
2023-03-01T07:07:57.799Z,52.73
2023-03-01T07:10:43.733Z,52.65
2023-03-01T07:13:29.586Z,52.47
2023-03-01T07:16:15.798Z,52.76
2023-03-01T07:19:01.729Z,52.81
2023-03-01T07:21:47.569Z,52.57
2023-03-01T07:24:33.355Z,52.34
2023-03-01T07:27:19.042Z,52.55
2023-03-01T07:30:05.449Z,52.52
2023-03-01T07:32:51.754Z,52.68
2023-03-01T07:35:38.645Z,52.72
2023-03-01T07:38:24.691Z,52.55
2023-03-01T07:41:10.733Z,52.63
2023-03-01T07:43:56.767Z,52.64
2023-03-01T07:46:43.049Z,52.46
2023-03-01T07:49:28.725Z,52.60
2023-03-01T07:52:14.752Z,52.67
2023-03-01T07:55:00.517Z,52.61
2023-03-01T07:57:46.362Z,52.62
2023-03-01T08:00:32.474Z,52.82
2023-03-01T08:03:18.533Z,52.61
2023-03-01T08:06:05.875Z,52.71
2023-03-01T08:08:51.986Z,52.71
2023-03-01T08:11:38.690Z,52.42
2023-03-01T08:14:24.659Z,52.76
2023-03-01T08:17:10.543Z,52.93
2023-03-01T08:19:56.862Z,52.45
2023-03-01T08:22:42.628Z,52.97
2023-03-01T08:25:28.734Z,52.71
2023-03-01T08:28:14.367Z,52.67
2023-03-01T08:31:00.160Z,52.93
2023-03-01T08:33:51.696Z,52.85
2023-03-01T08:36:40.945Z,52.39
2023-03-01T08:39:27.044Z,52.34
2023-03-01T08:42:13.075Z,52.56
2023-03-01T08:44:59.367Z,53.13
2023-03-01T08:47:46.304Z,53.01
2023-03-01T08:50:32.148Z,52.91
2023-03-01T08:53:18.002Z,52.88
2023-03-01T08:56:04.443Z,52.94
2023-03-01T08:58:50.740Z,52.98
2023-03-01T09:01:38.127Z,52.75
2023-03-01T09:04:24.272Z,52.55
2023-03-01T09:07:10.821Z,52.85
2023-03-01T09:09:56.718Z,53.02
2023-03-01T09:12:42.560Z,53.02
2023-03-01T09:15:28.435Z,52.95
2023-03-01T09:18:14.190Z,52.70
2023-03-01T09:21:08.342Z,52.70
2023-03-01T09:23:54.491Z,52.62
2023-03-01T09:26:40.450Z,52.58
2023-03-01T09:29:26.958Z,52.61
2023-03-01T09:32:13.264Z,52.77
2023-03-01T09:35:01.971Z,52.57
2023-03-01T09:37:48.025Z,52.68
2023-03-01T09:40:33.999Z,53.27
2023-03-01T09:43:27.933Z,53.20
2023-03-01T09:46:18.593Z,53.11
2023-03-01T09:49:11.901Z,53.14
2023-03-01T09:52:22.059Z,52.99
2023-03-01T09:55:17.149Z,52.93
2023-03-01T09:58:42.222Z,53.34
2023-03-01T10:01:58.245Z,53.09
2023-03-01T10:04:49.570Z,52.89
2023-03-01T10:07:57.019Z,52.94
2023-03-01T10:10:45.764Z,52.77
2023-03-01T10:13:50.215Z,53.25
2023-03-01T10:16:59.774Z,52.99
2023-03-01T10:19:47.587Z,53.22
2023-03-01T10:22:33.561Z,52.93
2023-03-01T10:25:43.785Z,52.73
2023-03-01T10:29:08.763Z,52.93
2023-03-01T10:31:55.961Z,52.45
2023-03-01T10:34:42.264Z,52.66
2023-03-01T10:37:28.527Z,52.50
2023-03-01T10:40:14.547Z,52.62
2023-03-01T10:43:02.977Z,52.60
2023-03-01T10:45:49.213Z,52.63
2023-03-01T10:48:35.443Z,52.50
2023-03-01T10:51:23.281Z,52.65
2023-03-01T10:54:28.997Z,52.88
2023-03-01T10:57:29.895Z,52.64
2023-03-01T11:00:23.625Z,52.80
2023-03-01T11:03:16.316Z,52.25
2023-03-01T11:06:22.564Z,52.32
2023-03-01T11:09:22.871Z,52.33
2023-03-01T11:12:16.023Z,52.43
2023-03-01T11:15:03.468Z,52.28
2023-03-01T11:17:56.997Z,52.24
2023-03-01T11:20:44.982Z,52.32
2023-03-01T11:23:31.908Z,52.19
2023-03-01T11:26:18.624Z,52.70
2023-03-01T11:29:07.546Z,52.50
2023-03-01T11:31:57.885Z,52.80
2023-03-01T11:34:52.851Z,52.28
2023-03-01T11:37:54.665Z,52.51
2023-03-01T11:40:46.231Z,52.43
2023-03-01T11:43:48.502Z,52.35
2023-03-01T11:46:51.001Z,52.63
2023-03-01T11:50:01.829Z,52.68
2023-03-01T11:52:54.090Z,52.88
2023-03-01T11:55:43.249Z,52.53
2023-03-01T11:58:46.842Z,52.65
2023-03-01T12:01:51.350Z,52.52
2023-03-01T12:04:37.376Z,52.52
2023-03-01T12:07:49.456Z,52.97
2023-03-01T12:10:44.295Z,52.71
2023-03-01T12:13:49.322Z,52.65
2023-03-01T12:16:56.782Z,53.06
2023-03-01T12:20:15.587Z,53.33
2023-03-01T12:23:24.485Z,52.65
2023-03-01T12:26:37.356Z,52.78
2023-03-01T12:29:46.399Z,52.98
2023-03-01T12:32:38.213Z,53.06
2023-03-01T12:35:42.171Z,52.93
2023-03-01T12:38:42.186Z,53.28
2023-03-01T12:41:48.212Z,53.18
2023-03-01T12:45:03.237Z,52.39
2023-03-01T12:48:09.327Z,52.68
2023-03-01T12:50:59.630Z,52.71
2023-03-01T12:53:50.453Z,52.58
2023-03-01T12:56:39.269Z,52.64
2023-03-01T12:59:28.219Z,52.62
2023-03-01T13:02:25.705Z,52.81
2023-03-01T13:05:44.888Z,52.89
2023-03-01T13:08:35.732Z,52.98
2023-03-01T13:11:23.413Z,52.83
2023-03-01T13:14:21.640Z,53.09
2023-03-01T13:17:34.277Z,52.74
2023-03-01T13:20:22.837Z,52.46
2023-03-01T13:23:33.087Z,52.30
2023-03-01T13:26:19.793Z,53.05
2023-03-01T13:29:28.437Z,52.73
2023-03-01T13:32:43.697Z,53.28
2023-03-01T13:35:45.141Z,52.61
2023-03-01T13:38:38.904Z,53.04
2023-03-01T13:41:40.219Z,52.52
2023-03-01T13:44:37.170Z,52.66
2023-03-01T13:47:23.775Z,53.15
2023-03-01T13:50:18.323Z,52.70
2023-03-01T13:53:07.662Z,52.83
2023-03-01T13:56:01.947Z,53.27
2023-03-01T13:58:51.102Z,52.67
2023-03-01T14:01:37.491Z,53.04
2023-03-01T14:04:26.828Z,53.45
2023-03-01T14:07:21.126Z,52.78
2023-03-01T14:10:07.582Z,52.74
2023-03-01T14:13:16.147Z,53.15
2023-03-01T14:16:16.806Z,52.46
2023-03-01T14:19:20.376Z,53.36
2023-03-01T14:22:28.398Z,52.87
2023-03-01T14:25:20.603Z,52.63
2023-03-01T14:28:20.001Z,53.15
2023-03-01T14:31:33.027Z,53.94
2023-03-01T14:34:24.874Z,53.26
2023-03-01T14:37:32.819Z,53.18
2023-03-01T14:40:30.928Z,53.55
2023-03-01T14:43:21.595Z,53.24
2023-03-01T14:46:07.587Z,53.22
2023-03-01T14:48:57.365Z,53.20
2023-03-01T14:51:47.977Z,53.54
2023-03-01T14:54:41.400Z,53.67
2023-03-01T14:57:28.040Z,53.23
2023-03-01T15:00:20.060Z,53.50
2023-03-01T15:03:14.517Z,53.58
2023-03-01T15:06:02.401Z,53.33
2023-03-01T15:08:52.022Z,53.29
2023-03-01T15:11:40.412Z,52.99
2023-03-01T15:15:02.686Z,53.70
2023-03-01T15:17:58.034Z,54.01
2023-03-01T15:20:44.483Z,53.54
2023-03-01T15:23:31.409Z,53.22
2023-03-01T15:26:36.548Z,53.73
2023-03-01T15:29:30.983Z,53.77
2023-03-01T15:32:28.417Z,53.43
2023-03-01T15:35:43.273Z,54.20
2023-03-01T15:38:41.450Z,53.62
2023-03-01T15:41:33.018Z,53.75
2023-03-01T15:44:29.976Z,53.90
2023-03-01T15:47:30.513Z,53.47
2023-03-01T15:50:47.363Z,53.98
2023-03-01T15:53:35.339Z,54.03
2023-03-01T15:56:22.588Z,53.96
2023-03-01T15:59:15.863Z,53.54
2023-03-01T16:02:02.046Z,54.12
2023-03-01T16:04:49.717Z,54.07
2023-03-01T16:07:40.723Z,53.71
2023-03-01T16:10:26.833Z,53.83
2023-03-01T16:13:13.815Z,53.64
2023-03-01T16:16:00.121Z,53.80
2023-03-01T16:18:47.690Z,54.05
2023-03-01T16:21:33.784Z,54.00
2023-03-01T16:24:20.111Z,54.03
2023-03-01T16:27:05.836Z,53.40
2023-03-01T16:29:51.740Z,53.88
2023-03-01T16:32:41.742Z,53.93
2023-03-01T16:35:27.776Z,53.40
2023-03-01T16:38:14.102Z,53.57
2023-03-01T16:41:00.247Z,53.78
2023-03-01T16:43:47.802Z,53.72
2023-03-01T16:46:34.266Z,53.69
2023-03-01T16:49:20.402Z,54.08
2023-03-01T16:52:06.589Z,53.56
2023-03-01T16:54:52.724Z,54.06
2023-03-01T16:57:39.456Z,54.08
2023-03-01T17:00:25.754Z,54.38
2023-03-01T17:03:12.149Z,54.62
2023-03-01T17:05:58.135Z,54.31
2023-03-01T17:08:44.064Z,54.73
2023-03-01T17:11:30.311Z,54.36
2023-03-01T17:14:17.263Z,54.91
2023-03-01T17:17:03.736Z,54.28
2023-03-01T17:19:50.100Z,54.72
2023-03-01T17:22:35.971Z,54.38
2023-03-01T17:25:21.983Z,54.23
2023-03-01T17:28:07.906Z,54.48
2023-03-01T17:30:54.474Z,54.47
2023-03-01T17:33:42.619Z,54.33
2023-03-01T17:36:29.472Z,54.33
2023-03-01T17:39:15.399Z,54.46
2023-03-01T17:42:01.202Z,54.65
2023-03-01T17:44:47.017Z,54.48
2023-03-01T17:47:32.915Z,54.50
2023-03-01T17:50:20.897Z,54.18
2023-03-01T17:53:09.994Z,54.37
2023-03-01T17:56:01.174Z,54.43
2023-03-01T17:58:47.388Z,54.33
2023-03-01T18:01:35.794Z,54.42
2023-03-01T18:04:21.676Z,54.32
2023-03-01T18:07:07.571Z,54.45
2023-03-01T18:09:53.784Z,54.77
2023-03-01T18:12:40.198Z,54.35
2023-03-01T18:15:26.347Z,54.58
2023-03-01T18:18:12.332Z,54.61
2023-03-01T18:20:58.875Z,54.49
2023-03-01T18:23:44.631Z,54.51
2023-03-01T18:26:30.978Z,54.51
2023-03-01T18:29:16.979Z,54.30
2023-03-01T18:32:02.975Z,54.42
2023-03-01T18:34:48.958Z,54.51
2023-03-01T18:37:35.209Z,54.43
2023-03-01T18:40:21.433Z,54.16
2023-03-01T18:43:07.432Z,54.17
2023-03-01T18:45:58.247Z,54.58
2023-03-01T18:48:44.911Z,54.52
2023-03-01T18:51:31.548Z,54.39
2023-03-01T18:54:17.705Z,54.67
2023-03-01T18:57:03.741Z,54.53
2023-03-01T18:59:49.985Z,54.65
2023-03-01T19:02:35.791Z,54.80
2023-03-01T19:05:21.716Z,54.28
2023-03-01T19:08:07.823Z,54.75
2023-03-01T19:10:58.514Z,54.23
2023-03-01T19:13:46.336Z,54.74
2023-03-01T19:16:34.306Z,54.84
2023-03-01T19:19:20.583Z,54.83
2023-03-01T19:22:07.902Z,54.40
2023-03-01T19:24:53.911Z,54.86
2023-03-01T19:27:40.032Z,54.72
2023-03-01T19:30:27.280Z,54.61
2023-03-01T19:33:13.401Z,54.99
2023-03-01T19:35:59.325Z,54.63
2023-03-01T19:38:46.249Z,54.49
2023-03-01T19:41:33.046Z,55.14
2023-03-01T19:44:28.407Z,54.14
2023-03-01T19:47:14.544Z,55.11
2023-03-01T19:50:00.608Z,54.96
2023-03-01T19:52:46.480Z,55.05
2023-03-01T19:55:32.691Z,55.20
2023-03-01T19:58:19.450Z,55.17
2023-03-01T20:01:05.722Z,54.93
2023-03-01T20:03:52.537Z,55.16
2023-03-01T20:06:39.148Z,55.37
2023-03-01T20:09:25.393Z,55.29
2023-03-01T20:12:11.609Z,55.28
2023-03-01T20:14:57.594Z,55.37
2023-03-01T20:17:43.836Z,55.60
2023-03-01T20:20:29.877Z,55.48
2023-03-01T20:23:15.976Z,55.49
2023-03-01T20:26:09.759Z,55.64
2023-03-01T20:28:57.331Z,55.57
2023-03-01T20:31:43.507Z,55.03
2023-03-01T20:34:29.432Z,55.59
2023-03-01T20:37:15.723Z,55.66
2023-03-01T20:40:01.973Z,55.77
2023-03-01T20:42:48.251Z,55.90
2023-03-01T20:45:34.350Z,55.86
2023-03-01T20:48:20.519Z,55.38
2023-03-01T20:51:07.663Z,55.49
2023-03-01T20:53:55.264Z,55.73
2023-03-01T20:56:41.336Z,55.52
2023-03-01T20:59:26.994Z,55.89
2023-03-01T21:02:12.990Z,55.83
2023-03-01T21:04:58.885Z,56.16
2023-03-01T21:07:45.651Z,55.76
2023-03-01T21:10:33.477Z,56.34
2023-03-01T21:13:19.753Z,56.13
2023-03-01T21:16:13.383Z,56.14
2023-03-01T21:19:01.684Z,55.99
2023-03-01T21:21:47.809Z,56.04
2023-03-01T21:24:33.692Z,56.09
2023-03-01T21:27:19.597Z,56.21
2023-03-01T21:30:06.026Z,56.15
2023-03-01T21:32:52.061Z,56.19
2023-03-01T21:35:37.939Z,55.85
2023-03-01T21:38:23.823Z,56.17
2023-03-01T21:41:10.892Z,56.00
2023-03-01T21:43:59.399Z,55.97
2023-03-01T21:46:45.207Z,55.83
2023-03-01T21:49:31.250Z,56.12
2023-03-01T21:52:17.117Z,55.99
2023-03-01T21:55:04.306Z,56.24
2023-03-01T21:57:50.169Z,56.46
2023-03-01T22:00:39.631Z,56.18
2023-03-01T22:03:25.599Z,56.22
2023-03-01T22:06:19.295Z,56.99
2023-03-01T22:09:08.872Z,56.34
2023-03-01T22:12:02.700Z,56.38
2023-03-01T22:14:49.154Z,56.98
2023-03-01T22:17:35.466Z,56.82
2023-03-01T22:20:22.007Z,56.86
2023-03-01T22:23:08.708Z,56.98
2023-03-01T22:25:55.077Z,56.57
2023-03-01T22:28:41.667Z,56.53
2023-03-01T22:31:28.241Z,56.73
2023-03-01T22:34:19.357Z,56.93
2023-03-01T22:37:05.194Z,56.94
2023-03-01T22:39:51.144Z,56.78
2023-03-01T22:42:37.453Z,56.31
2023-03-01T22:45:23.549Z,56.86
2023-03-01T22:48:09.567Z,56.92
2023-03-01T22:50:55.484Z,56.58
2023-03-01T22:53:41.407Z,57.02
2023-03-01T22:56:31.022Z,56.75
2023-03-01T22:59:25.030Z,56.57
2023-03-01T23:02:11.164Z,56.90
2023-03-01T23:04:57.536Z,56.68
2023-03-01T23:07:44.897Z,56.32
2023-03-01T23:10:30.735Z,56.52
2023-03-01T23:13:16.456Z,56.64
2023-03-01T23:16:02.395Z,56.73
2023-03-01T23:18:48.074Z,56.76
2023-03-01T23:21:34.116Z,56.82
2023-03-01T23:24:21.874Z,56.67
2023-03-01T23:27:08.109Z,56.56
2023-03-01T23:29:54.127Z,56.83
2023-03-01T23:32:40.435Z,56.64
2023-03-01T23:35:27.281Z,56.35
2023-03-01T23:38:13.080Z,56.83
2023-03-01T23:40:58.831Z,56.61
2023-03-01T23:43:47.006Z,56.51
2023-03-01T23:46:36.157Z,56.73
2023-03-01T23:49:24.032Z,56.68
2023-03-01T23:52:13.470Z,57.02
2023-03-01T23:55:00.308Z,56.99
2023-03-01T23:57:46.262Z,56.95
